»·PEaware :: N1169D KPSP-KHHR

N1169D :: KPSP-KHHR

FLIGHT INFORMATION

Flight Status: Arrived
Operator: Privately registered:
United States
More flights under this callsign
Pilot: Sean L. (31034)
Aircraft: CESSNA 172 SKYHAWK
(C172)
More flights by this aircraft type
Origin: KPSP Palm Springs Intl
United States
Destination: KHHR Northrop/Hawthorne Mun
United States
More flights between these airports :: More routes between these airports
Route: CATH1 PSP V388 PDZ PDZ270 HHR 25 LOC
File this flight plan on PilotEdge
Remarks: TEC PSPP9
Altitude:
(Current/Filed)
10,000ft
Speed:
(Current/Filed)
170kts
Departed: 13-Jan-21 06:52 PM
Arrived: 13-Jan-21 07:56 PM
Distance/Time
Traveled:
91nm/1:04
Distance/Time
To Go:
Arrived

Flight Plot

Page will automatically refresh every two minutes.

Flight plan parsing failed; only flown route is shown


Map Options




Map Legend


Flown Route
Filed Route
Departure Airport
Arrival Airport
Navaid (VOR, NDB)
Fix

Horizontal Profiles

Position Reports

Time Latitude Longitude Heading Altitude Ground
Speed
13-Jan-21 18:28 33.821903 -116.496921 55 399ft 0kts
13-Jan-21 18:29 33.821903 -116.496921 55 399ft 0kts
13-Jan-21 18:30 33.821903 -116.496921 55 399ft 0kts
13-Jan-21 18:31 33.821903 -116.496921 55 399ft 0kts
13-Jan-21 18:32 33.821903 -116.496921 55 399ft 0kts
13-Jan-21 18:33 33.821903 -116.496921 55 399ft 0kts
13-Jan-21 18:34 33.821903 -116.496921 55 399ft 0kts
13-Jan-21 18:35 33.821903 -116.496921 55 399ft 0kts
13-Jan-21 18:36 33.821903 -116.496921 55 399ft 0kts
13-Jan-21 18:37 33.821903 -116.496921 55 399ft 0kts
13-Jan-21 18:38 33.821903 -116.496921 55 399ft 0kts
13-Jan-21 18:39 33.821903 -116.496921 55 399ft 0kts
13-Jan-21 18:40 33.821903 -116.496921 55 399ft 0kts
13-Jan-21 18:41 33.821903 -116.496921 55 399ft 0kts
13-Jan-21 18:42 33.821903 -116.496921 55 399ft 0kts
13-Jan-21 18:43 33.821903 -116.496921 55 399ft 0kts
13-Jan-21 18:44 33.821903 -116.496921 55 399ft 0kts
13-Jan-21 18:45 33.821903 -116.496921 55 399ft 0kts
13-Jan-21 18:46 33.821903 -116.496921 55 399ft 0kts
13-Jan-21 18:47 33.821903 -116.496921 55 399ft 0kts
13-Jan-21 18:48 33.822529 -116.497419 327 400ft 20kts
13-Jan-21 18:49 33.824670 -116.499455 241 408ft 0kts
13-Jan-21 18:50 33.824702 -116.500393 319 410ft 21kts
13-Jan-21 18:51 33.840757 -116.515765 319 1142ft 88kts
13-Jan-21 18:52 33.860975 -116.523795 80 1969ft 98kts
13-Jan-21 18:53 33.858981 -116.492400 91 2905ft 96kts
13-Jan-21 18:54 33.860841 -116.459878 87 3722ft 98kts
13-Jan-21 18:55 33.860938 -116.427270 126 4430ft 103kts
13-Jan-21 18:56 33.850931 -116.396683 106 5192ft 99kts
13-Jan-21 18:57 33.841055 -116.365407 109 5847ft 101kts
13-Jan-21 18:58 33.830489 -116.334019 115 6463ft 102kts
13-Jan-21 18:59 33.826437 -116.302767 34 6988ft 105kts
13-Jan-21 19:00 33.839591 -116.323030 258 7525ft 102kts
13-Jan-21 19:01 33.833700 -116.357106 264 7999ft 105kts
13-Jan-21 19:02 33.845026 -116.388939 297 8461ft 106kts
13-Jan-21 19:03 33.855393 -116.421986 289 8902ft 106kts
13-Jan-21 19:04 33.865296 -116.455609 289 9313ft 107kts
13-Jan-21 19:05 33.875248 -116.489435 289 9694ft 107kts
13-Jan-21 19:06 33.885952 -116.525836 289 9721ft 121kts
13-Jan-21 19:07 33.897455 -116.565035 289 9720ft 125kts
13-Jan-21 19:08 33.909045 -116.604593 289 9720ft 125kts
13-Jan-21 19:09 33.920679 -116.644352 289 9720ft 125kts
13-Jan-21 19:10 33.932277 -116.684040 288 9720ft 125kts
13-Jan-21 19:11 33.943833 -116.723626 288 9720ft 125kts
13-Jan-21 19:12 33.947157 -116.765121 268 9720ft 125kts
13-Jan-21 19:13 33.945991 -116.807168 267 9720ft 125kts
13-Jan-21 19:14 33.944548 -116.849298 267 9720ft 125kts
13-Jan-21 19:15 33.943035 -116.891420 267 9637ft 131kts
13-Jan-21 19:16 33.941362 -116.937608 267 9140ft 139kts
13-Jan-21 19:17 33.939662 -116.983984 267 8638ft 138kts
13-Jan-21 19:18 33.937921 -117.031512 267 7899ft 145kts
13-Jan-21 19:19 33.936259 -117.075508 267 7791ft 116kts
13-Jan-21 19:20 33.934838 -117.112620 267 7793ft 108kts
13-Jan-21 19:21 33.933444 -117.148677 267 7793ft 107kts
13-Jan-21 19:23 33.932060 -117.184403 267 7793ft 107kts
13-Jan-21 19:24 33.930671 -117.220173 267 7793ft 107kts
13-Jan-21 19:25 33.929266 -117.256061 267 7793ft 107kts
13-Jan-21 19:26 33.927851 -117.291839 267 7793ft 107kts
13-Jan-21 19:27 33.926428 -117.327609 267 7793ft 107kts
13-Jan-21 19:28 33.924997 -117.363318 267 7793ft 107kts
13-Jan-21 19:29 33.923547 -117.399148 267 7793ft 107kts
13-Jan-21 19:30 33.922013 -117.437091 267 7457ft 126kts
13-Jan-21 19:31 33.920282 -117.480501 267 6858ft 131kts
13-Jan-21 19:32 33.918514 -117.524337 267 6258ft 131kts
13-Jan-21 19:33 33.918606 -117.568192 270 5657ft 131kts
13-Jan-21 19:34 33.919582 -117.612060 280 5054ft 131kts
13-Jan-21 19:35 33.926790 -117.655055 281 4452ft 130kts
13-Jan-21 19:36 33.934073 -117.697884 281 3851ft 130kts
13-Jan-21 19:37 33.939515 -117.740798 272 3252ft 130kts
13-Jan-21 19:38 33.941512 -117.784071 272 2781ft 121kts
13-Jan-21 19:38 33.943017 -117.815987 272 2789ft 111kts
13-Jan-21 19:40 33.944289 -117.859081 267 2790ft 110kts
13-Jan-21 19:41 33.942792 -117.895979 266 2790ft 110kts
13-Jan-21 19:41 33.941449 -117.926647 266 2790ft 110kts
13-Jan-21 19:42 33.939825 -117.963454 266 2790ft 110kts
13-Jan-21 19:43 33.936095 -117.999854 261 2728ft 114kts
13-Jan-21 19:44 33.933116 -118.036185 261 2825ft 106kts
13-Jan-21 19:45 33.930930 -118.072327 267 2871ft 107kts
13-Jan-21 19:46 33.935033 -118.108058 270 2909ft 108kts
13-Jan-21 19:47 33.933603 -118.138836 268 2814ft 80kts
13-Jan-21 19:48 33.933181 -118.165714 267 2414ft 79kts
13-Jan-21 19:49 33.930363 -118.192286 255 2053ft 80kts
13-Jan-21 19:50 33.925907 -118.218549 262 1699ft 80kts
13-Jan-21 19:51 33.924152 -118.245369 267 1363ft 80kts
13-Jan-21 19:52 33.924560 -118.272058 273 1044ft 79kts
13-Jan-21 19:53 33.924376 -118.298556 268 739ft 79kts
13-Jan-21 19:54 33.923474 -118.321026 267 313ft 64kts
13-Jan-21 19:55 33.922533 -118.334373 146 66ft 1kts
13-Jan-21 19:56 33.922400 -118.329896 93 64ft 6kts
13-Jan-21 19:57 33.922390 -118.329717 93 64ft 0kts

Navigation Log

Ident Type
Flight plan parsing failed, navigation log unavailable